Hauptseite
METAR-TAF:

METAR-TAF

Flughäfen :

Flughafen Burg al-ʿArab

Alexandria-Borg El Arab, Ägypten

Breite: 31-31N, Länge: 030-10E, Höhe: 54 m

Beobachtung

Neuester Wetterbericht von vor 1 Stunde und 27 Minuten, um 13:00 UTC
Wind 14 kt aus Ost
Temperatur 35°C
Luftfeuchtigkeit 25%
Luftdruck 1011 hPa
Sichtweite 10 km oder mehr
keine Wolken unter 1500 m und keine Kumulonimbus oder Gewitterwolken

METAR: HEBA 231300Z 08014KT CAVOK 35/12 Q1011 NOSIG

Zeit: 16:27 (14:27 UTC)

Prognose

Neuester Wetterbericht von vor 3 Stunden und 27 Minuten, um 11:00 UTC
Gültige Prognose vom 23 um 12 UTC bis 24 um 18 UTC
Wind 14 kt aus Ost/Südost
Sichtweite 10 km oder mehr
keine Wolken unter 1500 m und keine Kumulonimbus oder Gewitterwolken
Zeitweise
vom 23 um 12 UTC bis 23 um 15 UTC
Sichtweite: 3000 m
Sand,

TAF: HEBA 231100Z 2312/2418 11014KT CAVOK TEMPO 2312/2315 3000 SA NSC

Wetterbeobachtungen und Prognosen von mehr als 4000 Flughäfen (METAR und TAF Bericht).

Die verfügbaren Stationen werden durch gelbe und rote Markierungen auf der Karte dargestellt.

Führen Sie die Maus auf sie, um den Namen der Station zu sehen.

Darauf klicken, um die Beobachtung von Wetterbeobachtungen und Prognosen zu sehen.

Um die Karte zu ändern : klicken Sie auf den grünen Tasten mit einem schwarzen Kreuz Zum Vergrößern, auf den grünen Button mit einem Gedankenstrich zu verkleinern, oder auf die grünen Pfeile für benachbarte Karten.


METAR-TAF: